Time;durP1;ratioP1;P1;durP2;ratioP2;P2;SDS_P1;SDS_P2;PMS_P1;PMS_P2;Temp;Humidity;BMP_temperature;BMP_pressure;BME280_temperature;BME280_humidity;BME280_pressure;Samples;Min_cycle;Max_cycle;Signal;HPM_P1;HPM_P2
2022/11/18 00:04:52;;;;;;;12.25;6.40;;;;;;;1.42;72.00;98946.56;30492796;28;96714;-62
2022/11/18 00:19:52;;;;;;;9.57;6.13;;;;;;;1.33;72.19;98927.25;30490939;28;96877;-62
2022/11/18 00:34:53;;;;;;;8.18;5.72;;;;;;;1.30;72.15;98935.41;30491045;28;97246;-61
2022/11/18 00:49:53;;;;;;;8.15;4.82;;;;;;;1.24;72.47;98932.53;30499288;28;96663;-62
2022/11/18 01:04:54;;;;;;;9.40;6.03;;;;;;;1.18;72.05;98926.88;30509205;28;97377;-61
2022/11/18 01:19:54;;;;;;;8.60;6.20;;;;;;;1.12;72.49;98921.34;30507457;28;97497;-61
2022/11/18 01:34:54;;;;;;;9.23;6.22;;;;;;;1.10;72.46;98918.88;30505710;28;96706;-62
2022/11/18 01:49:57;;;;;;;9.25;5.90;;;;;;;1.12;72.40;98909.09;30505525;28;96620;-63
2022/11/18 02:05:01;;;;;;;9.30;6.37;;;;;;;1.03;72.27;98904.66;30503115;28;96666;-62
2022/11/18 02:20:29;;;;;;;10.50;7.40;;;;;;;0.99;72.33;98909.34;30502129;28;96728;-62
2022/11/18 02:35:45;;;;;;;12.27;6.40;;;;;;;0.91;72.16;98924.97;30500850;28;96720;-61
2022/11/18 02:50:49;;;;;;;10.02;6.18;;;;;;;0.87;72.18;98907.03;30499518;28;96573;-61
2022/11/18 03:06:22;;;;;;;10.23;6.70;;;;;;;0.81;72.62;98895.31;30497898;28;96664;-62
2022/11/18 03:21:53;;;;;;;10.50;7.25;;;;;;;0.72;72.49;98883.03;30496169;28;97132;-63
2022/11/18 03:36:58;;;;;;;9.85;6.35;;;;;;;0.71;72.46;98870.91;30471388;28;97368;-62
2022/11/18 03:52:06;;;;;;;12.88;7.13;;;;;;;0.72;72.56;98872.56;30491814;28;96811;-62
2022/11/18 04:07:25;;;;;;;10.30;6.95;;;;;;;0.69;72.37;98863.19;30491496;28;97203;-62
2022/11/18 04:22:26;;;;;;;12.57;8.10;;;;;;;0.73;72.91;98864.56;30495975;28;97634;-62
2022/11/18 04:37:26;;;;;;;14.30;9.18;;;;;;;0.70;72.83;98856.13;30510027;28;96762;-62
2022/11/18 04:52:26;;;;;;;13.80;8.43;;;;;;;0.64;72.92;98879.34;30508187;28;96805;-62
2022/11/18 05:07:27;;;;;;;16.23;9.50;;;;;;;0.53;72.93;98879.44;30505914;28;97254;-62
2022/11/18 05:22:27;;;;;;;18.00;10.55;;;;;;;0.49;72.96;98899.03;30502523;28;96721;-62
2022/11/18 05:37:31;;;;;;;22.15;10.55;;;;;;;0.37;73.20;98921.94;30501870;28;96641;-62
2022/11/18 05:52:32;;;;;;;14.30;8.33;;;;;;;0.16;72.61;98941.19;30501810;28;96771;-61
2022/11/18 06:07:43;;;;;;;17.38;10.13;;;;;;;-0.02;72.39;98959.31;30481198;28;97284;-65
2022/11/18 06:22:43;;;;;;;12.82;8.15;;;;;;;-0.07;72.51;98985.09;30467020;28;97736;-67
2022/11/18 06:37:45;;;;;;;15.40;9.40;;;;;;;-0.10;72.04;99001.03;30471227;28;98586;-69
2022/11/18 06:52:45;;;;;;;17.58;9.45;;;;;;;-0.12;72.25;99005.59;30470241;28;97726;-67
2022/11/18 07:07:46;;;;;;;19.90;11.63;;;;;;;-0.16;71.80;99025.13;30492867;28;97297;-68
2022/11/18 07:22:46;;;;;;;19.02;10.93;;;;;;;-0.19;71.77;99034.06;30496861;28;96743;-63
2022/11/18 07:37:47;;;;;;;20.88;11.15;;;;;;;-0.19;71.73;99030.66;30503224;28;96764;-64
2022/11/18 07:52:47;;;;;;;20.02;12.13;;;;;;;-0.15;71.27;99026.81;30493929;28;97765;-66
2022/11/18 08:07:47;;;;;;;17.80;10.05;;;;;;;-0.32;70.98;99024.78;30490726;28;96634;-61
2022/11/18 08:22:48;;;;;;;20.50;11.15;;;;;;;-0.23;70.85;99042.34;30484169;28;96659;-63
2022/11/18 08:37:48;;;;;;;18.48;10.63;;;;;;;-0.23;70.04;99030.06;30490855;28;97115;-63
2022/11/18 08:52:48;;;;;;;18.60;11.23;;;;;;;-0.02;69.32;99037.88;30488197;28;97631;-62
2022/11/18 09:07:49;;;;;;;19.10;11.85;;;;;;;-0.09;68.71;99070.78;30503630;28;97582;-67
2022/11/18 09:22:49;;;;;;;18.40;11.20;;;;;;;-0.03;68.25;99075.50;30503711;28;96819;-62
2022/11/18 09:37:50;;;;;;;27.05;12.18;;;;;;;-0.01;67.79;99097.13;30502649;28;96872;-63
2022/11/18 09:53:07;;;;;;;16.27;10.80;;;;;;;-0.04;67.22;99107.88;30500695;28;96865;-63
2022/11/18 10:08:24;;;;;;;16.75;10.95;;;;;;;-0.11;66.74;99101.50;30426491;28;96704;-64
2022/11/18 10:23:52;;;;;;;18.13;10.38;;;;;;;-0.09;66.19;99109.22;30398257;28;98334;-66
2022/11/18 10:39:15;;;;;;;16.30;10.65;;;;;;;0.02;65.45;99113.56;30469438;28;97289;-66
2022/11/18 10:54:22;;;;;;;14.10;9.02;;;;;;;0.02;64.98;99121.44;30468168;28;97946;-68
2022/11/18 11:09:26;;;;;;;14.23;9.50;;;;;;;0.18;64.63;99134.88;30465481;28;96804;-71
2022/11/18 11:24:28;;;;;;;17.40;10.82;;;;;;;0.35;63.98;99130.00;30463322;28;97684;-72
2022/11/18 11:39:43;;;;;;;18.63;10.82;;;;;;;0.15;63.49;99133.34;30463467;28;98120;-72
2022/11/18 11:55:03;;;;;;;20.05;10.68;;;;;;;0.11;63.25;99126.72;30463352;28;98425;-71
2022/11/18 12:10:39;;;;;;;21.17;12.65;;;;;;;0.10;63.31;99127.66;30460037;28;97558;-68
2022/11/18 12:25:45;;;;;;;24.48;13.45;;;;;;;0.16;63.46;99134.16;30451918;28;97497;-67
2022/11/18 12:40:47;;;;;;;24.80;13.60;;;;;;;-0.17;63.80;99151.75;30460134;28;97867;-65
2022/11/18 12:55:47;;;;;;;18.52;11.43;;;;;;;-0.28;64.11;99157.03;30479522;28;97947;-69
2022/11/18 13:26:13;;;;;;;12.85;7.80;;;;;;;-0.84;64.72;99184.22;30466933;28;96806;-70
2022/11/18 13:41:22;;;;;;;9.50;5.10;;;;;;;-1.04;64.53;99217.97;30469880;28;98001;-66
2022/11/18 13:56:27;;;;;;;7.15;4.07;;;;;;;-1.23;64.55;99221.19;30471054;28;97018;-68
2022/11/18 14:11:40;;;;;;;5.30;4.07;;;;;;;-1.31;63.81;99239.25;30497240;28;96762;-71
2022/11/18 14:26:40;;;;;;;5.93;3.35;;;;;;;-1.27;64.18;99253.72;30497144;28;96704;-70
2022/11/18 14:41:46;;;;;;;5.28;3.65;;;;;;;-1.23;63.40;99249.94;30479573;28;98281;-68
2022/11/18 14:56:48;;;;;;;5.07;3.10;;;;;;;-1.85;62.83;99269.41;30473369;28;97640;-67
2022/11/18 15:11:49;;;;;;;6.97;3.65;;;;;;;-2.42;63.00;99277.81;30425516;28;98321;-68
2022/11/18 15:26:49;;;;;;;7.20;3.97;;;;;;;-2.90;63.87;99301.16;30482279;28;98616;-68
2022/11/18 15:41:50;;;;;;;8.88;5.30;;;;;;;-3.33;64.40;99312.75;30472196;28;97142;-66
2022/11/18 15:56:50;;;;;;;9.50;5.00;;;;;;;-3.59;65.30;99315.31;30458169;28;97135;-71
2022/11/18 16:27:09;;;;;;;15.13;7.07;;;;;;;-3.79;66.84;99353.06;30478660;28;96770;-69
2022/11/18 16:42:11;;;;;;;11.80;6.50;;;;;;;-3.92;67.45;99367.81;30476709;28;97089;-68
2022/11/18 16:57:11;;;;;;;11.02;5.63;;;;;;;-3.84;68.07;99370.75;30475188;28;96739;-70
2022/11/18 17:12:12;;;;;;;17.33;6.75;;;;;;;-3.16;68.39;99384.56;30473468;28;97325;-71
2022/11/18 17:27:12;;;;;;;10.45;6.35;;;;;;;-2.60;67.93;99392.09;30473802;28;97098;-72
2022/11/18 17:42:13;;;;;;;12.18;6.82;;;;;;;-2.09;67.98;99414.66;30492556;28;97512;-70
2022/11/18 17:57:13;;;;;;;14.75;8.25;;;;;;;-1.77;67.79;99408.88;30520878;28;98157;-69
2022/11/18 18:27:33;;;;;;;15.70;8.27;;;;;;;-1.39;67.10;99418.34;30488804;28;96777;-69
2022/11/18 18:42:34;;;;;;;15.07;8.73;;;;;;;-1.35;66.85;99429.41;30486672;28;97491;-68
2022/11/18 18:57:34;;;;;;;14.88;7.88;;;;;;;-1.19;66.57;99450.00;30488251;28;96737;-65
2022/11/18 19:12:45;;;;;;;13.95;7.43;;;;;;;-1.04;66.51;99450.66;30484930;28;97646;-70
2022/11/18 19:27:45;;;;;;;16.65;8.80;;;;;;;-0.88;66.60;99459.00;30484505;28;97899;-69
2022/11/18 19:42:48;;;;;;;17.25;8.90;;;;;;;-0.81;66.48;99453.34;30483358;28;97129;-66
2022/11/18 19:57:49;;;;;;;13.70;7.95;;;;;;;-0.92;66.82;99477.66;30483722;28;96804;-67
2022/11/18 20:12:51;;;;;;;15.38;9.57;;;;;;;-1.05;67.24;99481.19;30480156;28;97111;-71
2022/11/18 20:27:52;;;;;;;14.10;8.07;;;;;;;-1.10;67.31;99500.78;30480009;28;98435;-72
2022/11/18 20:58:21;;;;;;;18.90;9.00;;;;;;;-1.12;67.57;99528.78;30466459;28;97306;-73
2022/11/18 21:28:40;;;;;;;17.20;9.48;;;;;;;-1.23;67.11;99548.72;30505453;28;96625;-70
2022/11/18 21:43:41;;;;;;;14.75;8.25;;;;;;;-1.23;67.01;99559.19;30506494;28;97553;-65
2022/11/18 21:58:42;;;;;;;14.85;7.55;;;;;;;-1.40;67.05;99565.59;30504961;28;96602;-68
2022/11/18 22:13:43;;;;;;;14.85;7.57;;;;;;;-1.58;66.95;99572.13;30479972;28;96909;-65
2022/11/18 22:28:44;;;;;;;11.30;6.05;;;;;;;-1.80;66.71;99578.84;30515072;28;96623;-71
2022/11/18 22:43:44;;;;;;;8.52;5.50;;;;;;;-1.70;66.28;99603.38;30500386;28;96736;-70
2022/11/18 22:58:44;;;;;;;10.90;6.35;;;;;;;-1.82;66.22;99606.81;30499352;28;97036;-71
2022/11/18 23:14:03;;;;;;;10.18;5.60;;;;;;;-2.54;65.99;99609.91;30497354;28;96839;-72
2022/11/18 23:29:04;;;;;;;16.38;7.32;;;;;;;-3.24;66.56;99629.09;30497649;28;96725;-72
2022/11/18 23:44:04;;;;;;;12.55;7.32;;;;;;;-3.65;67.32;99624.69;30495870;28;96760;-70
2022/11/18 23:59:05;;;;;;;10.07;6.20;;;;;;;-4.04;67.91;99628.78;30494275;28;97790;-71
